createdAt,value
2019-03-13T00:02:36.271Z,0.43
2019-03-13T00:05:09.449Z,0.80
2019-03-13T00:07:39.787Z,0.80
2019-03-13T00:10:11.022Z,0.50
2019-03-13T00:12:41.441Z,0.50
2019-03-13T00:15:12.064Z,0.53
2019-03-13T00:17:42.423Z,0.63
2019-03-13T00:20:13.141Z,0.50
2019-03-13T00:22:43.462Z,0.50
2019-03-13T00:25:14.155Z,0.80
2019-03-13T00:27:45.505Z,0.40
2019-03-13T00:30:16.144Z,0.50
2019-03-13T00:32:46.533Z,0.60
2019-03-13T00:35:17.236Z,0.50
2019-03-13T00:37:47.997Z,0.50
2019-03-13T00:40:18.578Z,0.50
2019-03-13T00:42:49.065Z,0.50
2019-03-13T00:45:19.428Z,0.40
2019-03-13T00:47:49.795Z,0.40
2019-03-13T00:50:24.073Z,0.40
2019-03-13T00:52:55.628Z,0.30
2019-03-13T00:55:25.926Z,0.30
2019-03-13T00:57:56.296Z,0.40
2019-03-13T01:00:51.563Z,0.40
2019-03-13T01:03:56.154Z,0.40
2019-03-13T01:06:29.307Z,0.50
2019-03-13T01:08:59.668Z,0.40
2019-03-13T01:11:30.619Z,0.50
2019-03-13T01:14:00.963Z,0.70
2019-03-13T01:16:31.252Z,0.50
2019-03-13T01:19:01.568Z,0.80
2019-03-13T01:21:31.950Z,0.50
2019-03-13T01:24:02.282Z,0.57
2019-03-13T01:26:32.571Z,0.60
2019-03-13T01:29:02.883Z,0.60
2019-03-13T01:31:51.203Z,0.50
2019-03-13T01:34:34.660Z,0.60
2019-03-13T01:37:04.989Z,0.70
2019-03-13T01:39:35.357Z,0.60
2019-03-13T01:42:05.781Z,0.80
2019-03-13T01:44:36.084Z,1.00
2019-03-13T01:47:06.410Z,1.10
2019-03-13T01:49:36.695Z,0.97
2019-03-13T01:52:07.024Z,1.00
2019-03-13T01:54:37.307Z,0.90
2019-03-13T01:57:07.628Z,1.00
2019-03-13T01:59:37.928Z,1.10
2019-03-13T02:02:08.250Z,0.57
2019-03-13T02:04:38.620Z,0.70
2019-03-13T02:07:08.964Z,0.43
2019-03-13T02:09:39.251Z,0.50
2019-03-13T02:12:09.614Z,0.60
2019-03-13T02:14:39.924Z,0.70
2019-03-13T02:17:10.251Z,0.85
2019-03-13T02:19:40.555Z,1.00
2019-03-13T02:22:11.166Z,1.00
2019-03-13T02:24:41.458Z,1.15
2019-03-13T02:27:11.898Z,1.40
2019-03-13T02:29:42.172Z,1.40
2019-03-13T02:32:12.758Z,1.80
2019-03-13T02:34:43.075Z,1.60
2019-03-13T02:37:13.757Z,1.50
2019-03-13T02:39:44.123Z,1.50
2019-03-13T02:42:14.541Z,1.40
2019-03-13T02:44:44.934Z,1.30
2019-03-13T02:47:18.601Z,1.37
2019-03-13T02:49:47.813Z,1.40
2019-03-13T02:52:18.334Z,1.40
2019-03-13T02:54:49.031Z,1.40
2019-03-13T02:57:19.388Z,1.50
2019-03-13T02:59:51.104Z,1.40
2019-03-13T03:02:46.168Z,1.43
2019-03-13T03:05:17.582Z,1.50
2019-03-13T03:07:47.927Z,1.20
2019-03-13T03:10:18.320Z,1.20
2019-03-13T03:12:48.644Z,1.30
2019-03-13T03:15:21.312Z,1.73
2019-03-13T03:17:51.605Z,1.50
2019-03-13T03:20:22.008Z,1.50
2019-03-13T03:22:52.703Z,1.40
2019-03-13T03:25:23.063Z,1.60
2019-03-13T03:27:53.424Z,1.27
2019-03-13T03:30:24.300Z,1.40
2019-03-13T03:32:54.701Z,1.70
2019-03-13T03:35:25.113Z,1.50
2019-03-13T03:37:55.645Z,1.53
2019-03-13T03:40:25.996Z,1.37
2019-03-13T03:42:56.347Z,1.33
2019-03-13T03:45:26.709Z,1.60
2019-03-13T03:47:56.986Z,1.60
2019-03-13T03:50:27.303Z,1.30
2019-03-13T03:53:01.608Z,1.30
2019-03-13T03:55:32.043Z,1.60
2019-03-13T03:58:02.420Z,1.20
2019-03-13T04:00:32.764Z,1.10
2019-03-13T04:03:03.041Z,1.23
2019-03-13T04:05:33.561Z,1.20
2019-03-13T04:08:03.870Z,0.90
2019-03-13T04:10:34.199Z,1.10
2019-03-13T04:13:04.475Z,0.87
2019-03-13T04:15:34.899Z,0.80
2019-03-13T04:18:05.382Z,0.97
2019-03-13T04:20:35.695Z,0.90
2019-03-13T04:23:06.070Z,0.70
2019-03-13T04:25:37.227Z,1.00
2019-03-13T04:28:08.125Z,0.97
2019-03-13T04:30:38.442Z,0.80
2019-03-13T04:33:08.782Z,0.90
2019-03-13T04:35:39.130Z,0.77
2019-03-13T04:38:09.534Z,0.80
2019-03-13T04:40:39.855Z,0.90
2019-03-13T04:43:10.138Z,0.93
2019-03-13T04:45:40.451Z,0.70
2019-03-13T04:48:10.766Z,0.87
2019-03-13T04:50:41.099Z,0.80
2019-03-13T04:53:11.494Z,1.00
2019-03-13T04:55:41.838Z,1.00
2019-03-13T04:58:12.117Z,0.70
2019-03-13T05:00:42.460Z,1.00
2019-03-13T05:03:12.934Z,1.20
2019-03-13T05:05:47.614Z,1.03
2019-03-13T05:08:45.018Z,1.00
2019-03-13T05:11:08.659Z,1.30
2019-03-13T05:13:38.966Z,1.70
2019-03-13T05:16:09.358Z,1.50
2019-03-13T05:18:39.881Z,1.20
2019-03-13T05:21:10.430Z,1.43
2019-03-13T05:23:40.807Z,1.42
2019-03-13T05:26:11.209Z,1.12
2019-03-13T05:28:41.582Z,1.00
2019-03-13T05:31:12.097Z,1.37
2019-03-13T05:33:42.484Z,1.40
2019-03-13T05:36:16.313Z,1.70
2019-03-13T05:38:45.950Z,1.37
2019-03-13T05:41:16.439Z,1.30
2019-03-13T05:43:46.797Z,1.40
2019-03-13T05:46:17.170Z,1.63
2019-03-13T05:48:47.629Z,2.12
2019-03-13T05:51:18.300Z,1.60
2019-03-13T05:53:48.692Z,1.37
2019-03-13T05:56:19.086Z,0.90
2019-03-13T05:58:49.506Z,0.90
2019-03-13T06:01:19.830Z,1.30
2019-03-13T06:03:50.190Z,1.20
2019-03-13T06:06:20.516Z,1.40
2019-03-13T06:08:50.820Z,1.60
2019-03-13T06:11:21.258Z,1.57
2019-03-13T06:13:51.566Z,1.13
2019-03-13T06:16:21.892Z,1.30
2019-03-13T06:18:53.118Z,1.50
2019-03-13T06:21:23.540Z,1.70
2019-03-13T06:23:53.844Z,2.10
2019-03-13T06:26:24.192Z,3.20
2019-03-13T06:28:54.507Z,3.10
2019-03-13T06:31:24.834Z,2.70
2019-03-13T06:33:55.119Z,2.37
2019-03-13T06:36:25.454Z,1.90
2019-03-13T06:38:55.732Z,1.80
2019-03-13T06:41:26.064Z,2.50
2019-03-13T06:43:56.424Z,2.10
2019-03-13T06:46:26.746Z,1.67
2019-03-13T06:48:57.052Z,1.40
2019-03-13T06:51:27.362Z,1.50
2019-03-13T06:53:57.666Z,1.60
2019-03-13T06:56:28.017Z,1.20
2019-03-13T06:59:09.272Z,1.30
2019-03-13T07:01:48.997Z,1.57
2019-03-13T07:04:53.339Z,1.20
2019-03-13T07:07:51.659Z,1.20
2019-03-13T07:10:37.658Z,1.30
2019-03-13T07:13:15.269Z,1.20
2019-03-13T07:16:07.283Z,1.20
2019-03-13T07:18:50.257Z,1.20
2019-03-13T07:21:43.921Z,1.30
2019-03-13T07:24:24.760Z,2.10
2019-03-13T07:27:00.874Z,1.37
2019-03-13T07:29:50.073Z,1.57
2019-03-13T07:32:45.137Z,1.10
2019-03-13T07:35:46.728Z,1.30
2019-03-13T07:38:36.087Z,1.60
2019-03-13T07:41:14.855Z,1.83
2019-03-13T07:44:14.640Z,1.30
2019-03-13T07:47:13.162Z,1.30
2019-03-13T07:50:02.887Z,1.13
2019-03-13T07:52:55.264Z,0.90
2019-03-13T07:55:33.507Z,1.20
2019-03-13T07:58:34.928Z,1.20
2019-03-13T08:01:23.120Z,1.30
2019-03-13T08:04:23.776Z,1.30
2019-03-13T08:07:04.330Z,1.50
2019-03-13T08:09:52.238Z,1.50
2019-03-13T08:12:40.455Z,1.60
2019-03-13T08:15:46.415Z,1.50
2019-03-13T08:18:27.782Z,1.90
2019-03-13T08:21:15.749Z,1.47
2019-03-13T08:23:53.542Z,1.50
2019-03-13T08:26:48.793Z,1.10
2019-03-13T08:29:41.170Z,1.60
2019-03-13T08:32:30.418Z,1.30
2019-03-13T08:35:18.706Z,1.30
2019-03-13T08:38:02.982Z,1.20
2019-03-13T08:40:55.240Z,1.83
2019-03-13T08:43:33.766Z,2.07
2019-03-13T08:46:18.533Z,1.60
2019-03-13T08:48:57.099Z,1.53
2019-03-13T08:51:52.477Z,1.33
2019-03-13T08:54:41.850Z,1.17
2019-03-13T08:57:43.453Z,1.70
2019-03-13T09:00:32.012Z,1.70
2019-03-13T09:03:21.332Z,1.37
2019-03-13T09:06:10.594Z,1.20
2019-03-13T09:09:02.900Z,1.20
2019-03-13T09:12:05.797Z,1.70
2019-03-13T09:14:55.085Z,1.47
2019-03-13T09:18:02.856Z,1.17
2019-03-13T09:20:52.107Z,1.83
2019-03-13T09:23:27.697Z,1.70
2019-03-13T09:26:17.142Z,1.13
2019-03-13T09:29:05.393Z,1.20
2019-03-13T09:31:55.563Z,1.43
2019-03-13T09:34:38.114Z,1.57
2019-03-13T09:37:26.377Z,1.27
2019-03-13T09:40:14.281Z,2.03
2019-03-13T09:43:03.632Z,2.10
2019-03-13T09:45:41.596Z,1.57
2019-03-13T09:48:31.092Z,1.70
2019-03-13T09:51:19.222Z,1.63
2019-03-13T09:54:17.636Z,2.00
2019-03-13T09:57:09.929Z,2.13
2019-03-13T09:59:50.379Z,2.00
2019-03-13T10:02:42.594Z,1.40
2019-03-13T10:05:31.298Z,1.80
2019-03-13T10:08:11.791Z,1.40
2019-03-13T10:11:04.044Z,1.63
2019-03-13T10:14:05.406Z,1.30
2019-03-13T10:16:53.794Z,1.57
2019-03-13T10:19:34.273Z,2.63
2019-03-13T10:22:22.279Z,2.80
2019-03-13T10:25:11.544Z,2.20
2019-03-13T10:27:57.346Z,1.80
2019-03-13T10:30:46.626Z,2.20
2019-03-13T10:33:30.684Z,1.40
2019-03-13T10:36:20.574Z,1.40
2019-03-13T10:39:08.554Z,1.80
2019-03-13T10:41:51.237Z,2.00
2019-03-13T10:44:58.947Z,2.10
2019-03-13T10:47:48.189Z,1.90
2019-03-13T10:50:43.398Z,1.67
2019-03-13T10:53:44.769Z,1.67
2019-03-13T10:56:39.863Z,2.13
2019-03-13T10:59:37.988Z,1.70
2019-03-13T11:02:30.037Z,2.10
2019-03-13T11:05:22.157Z,1.80
2019-03-13T11:08:02.362Z,2.33
2019-03-13T11:11:04.716Z,1.70
2019-03-13T11:14:15.416Z,1.63
2019-03-13T11:16:53.091Z,1.60
2019-03-13T11:19:35.243Z,1.57
2019-03-13T11:22:21.011Z,2.07
2019-03-13T11:25:13.197Z,1.80
2019-03-13T11:27:51.926Z,2.17
2019-03-13T11:30:42.705Z,2.30
2019-03-13T11:33:30.636Z,2.80
2019-03-13T11:36:19.390Z,2.80
2019-03-13T11:39:04.743Z,4.73
2019-03-13T11:41:53.220Z,1.90
2019-03-13T11:44:45.555Z,1.47
2019-03-13T11:47:27.949Z,1.77
2019-03-13T11:50:26.250Z,1.90
2019-03-13T11:53:21.191Z,1.90
2019-03-13T11:56:02.184Z,2.10
2019-03-13T11:58:54.218Z,2.07
2019-03-13T12:01:46.047Z,2.20
2019-03-13T12:04:33.089Z,1.80
2019-03-13T12:07:22.513Z,1.80
2019-03-13T12:10:15.554Z,1.43
2019-03-13T12:12:54.113Z,1.00
2019-03-13T12:15:34.750Z,1.10
2019-03-13T12:18:10.326Z,1.00
2019-03-13T12:21:02.695Z,1.40
2019-03-13T12:23:57.930Z,1.40
2019-03-13T12:26:47.205Z,1.13
2019-03-13T12:29:50.254Z,1.50
2019-03-13T12:32:42.379Z,1.50
2019-03-13T12:35:37.487Z,1.10
2019-03-13T12:38:24.361Z,1.00
2019-03-13T12:41:19.441Z,1.03
2019-03-13T12:44:08.710Z,1.60
2019-03-13T12:46:53.777Z,3.83
2019-03-13T12:49:32.757Z,3.37
2019-03-13T12:52:28.181Z,1.67
2019-03-13T12:55:26.274Z,1.53
2019-03-13T12:58:27.640Z,2.00
2019-03-13T13:01:16.939Z,1.90
2019-03-13T13:03:54.906Z,1.87
2019-03-13T13:06:48.313Z,1.60
2019-03-13T13:09:40.359Z,1.60
2019-03-13T13:12:33.060Z,1.90
2019-03-13T13:15:28.164Z,2.00
2019-03-13T13:18:26.721Z,1.70
2019-03-13T13:20:57.058Z,1.90
2019-03-13T13:23:27.495Z,1.97
2019-03-13T13:25:57.774Z,1.70
2019-03-13T13:28:28.082Z,1.47
2019-03-13T13:30:58.430Z,1.80
2019-03-13T13:33:28.754Z,1.80
2019-03-13T13:35:59.085Z,1.93
2019-03-13T13:38:29.398Z,1.90
2019-03-13T13:40:59.745Z,1.50
2019-03-13T13:43:30.391Z,1.90
2019-03-13T13:46:10.174Z,2.10
2019-03-13T13:48:40.493Z,2.10
2019-03-13T13:51:10.850Z,1.70
2019-03-13T13:53:42.558Z,1.70
2019-03-13T13:56:12.980Z,1.70
2019-03-13T13:58:43.276Z,1.77
2019-03-13T14:01:13.607Z,2.07
2019-03-13T14:03:43.900Z,1.55
2019-03-13T14:06:14.299Z,1.70
2019-03-13T14:08:44.608Z,1.98
2019-03-13T14:11:14.934Z,1.87
2019-03-13T14:13:45.225Z,1.60
2019-03-13T14:16:15.566Z,1.50
2019-03-13T14:18:45.911Z,1.60
2019-03-13T14:21:16.305Z,1.77
2019-03-13T14:23:46.567Z,1.95
2019-03-13T14:26:16.888Z,1.90
2019-03-13T14:28:47.259Z,1.80
2019-03-13T14:31:17.701Z,1.90
2019-03-13T14:33:48.464Z,1.60
2019-03-13T14:36:21.803Z,1.45
2019-03-13T14:38:52.322Z,1.53
2019-03-13T14:41:22.648Z,1.80
2019-03-13T14:43:53.111Z,1.90
2019-03-13T14:46:23.435Z,1.70
2019-03-13T14:48:55.018Z,1.93
2019-03-13T14:51:25.346Z,1.60
2019-03-13T14:53:55.700Z,1.43
2019-03-13T14:56:26.018Z,1.80
2019-03-13T14:58:56.510Z,1.67
2019-03-13T15:01:26.913Z,1.40
2019-03-13T15:03:57.232Z,2.10
2019-03-13T15:06:27.540Z,1.80
2019-03-13T15:08:57.882Z,2.33
2019-03-13T15:11:28.186Z,1.90
2019-03-13T15:13:58.882Z,1.60
2019-03-13T15:16:29.191Z,1.90
2019-03-13T15:18:59.549Z,1.60
2019-03-13T15:21:29.854Z,2.13
2019-03-13T15:24:00.282Z,1.50
2019-03-13T15:26:31.099Z,1.80
2019-03-13T15:29:01.487Z,2.10
2019-03-13T15:31:31.846Z,2.70
2019-03-13T15:34:02.197Z,1.87
2019-03-13T15:36:32.527Z,1.73
2019-03-13T15:39:02.884Z,2.40
2019-03-13T15:41:34.877Z,1.70
2019-03-13T15:44:07.281Z,1.67
2019-03-13T15:46:37.585Z,1.80
2019-03-13T15:49:07.930Z,1.47
2019-03-13T15:51:38.989Z,2.20
2019-03-13T15:54:10.492Z,2.10
2019-03-13T15:56:40.794Z,1.57
2019-03-13T15:59:11.134Z,1.57
2019-03-13T16:01:42.618Z,1.30
2019-03-13T16:04:12.968Z,1.70
2019-03-13T16:06:43.258Z,1.80
2019-03-13T16:09:13.604Z,1.67
2019-03-13T16:11:45.090Z,1.67
2019-03-13T16:14:15.427Z,1.77
2019-03-13T16:16:45.825Z,1.43
2019-03-13T16:19:16.322Z,1.80
2019-03-13T16:21:47.802Z,1.50
2019-03-13T16:24:18.146Z,1.90
2019-03-13T16:26:48.463Z,1.47
2019-03-13T16:29:20.950Z,1.70
2019-03-13T16:31:51.281Z,2.00
2019-03-13T16:34:21.777Z,1.97
2019-03-13T16:36:52.173Z,1.90
2019-03-13T16:39:22.504Z,1.90
2019-03-13T16:41:52.826Z,2.07
2019-03-13T16:44:23.193Z,2.10
2019-03-13T16:46:53.818Z,1.90
2019-03-13T16:49:24.216Z,1.87
2019-03-13T16:51:54.505Z,1.97
2019-03-13T16:54:24.939Z,1.93
2019-03-13T16:56:55.339Z,2.20
2019-03-13T16:59:25.698Z,2.00
2019-03-13T17:01:56.006Z,2.20
2019-03-13T17:04:26.537Z,2.27
2019-03-13T17:06:56.919Z,2.90
2019-03-13T17:09:27.306Z,2.40
2019-03-13T17:11:57.676Z,1.87
2019-03-13T17:14:28.070Z,2.20
2019-03-13T17:16:59.357Z,1.90
2019-03-13T17:19:29.739Z,2.37
2019-03-13T17:22:00.051Z,1.97
2019-03-13T17:24:30.415Z,2.92
2019-03-13T17:27:00.745Z,1.90
2019-03-13T17:29:31.921Z,2.12
2019-03-13T17:32:03.313Z,2.00
2019-03-13T17:34:33.745Z,1.87
2019-03-13T17:37:04.105Z,2.43
2019-03-13T17:39:34.510Z,2.47
2019-03-13T17:42:04.858Z,2.07
2019-03-13T17:44:35.182Z,2.60
2019-03-13T17:47:05.493Z,2.00
2019-03-13T17:49:38.001Z,2.20
2019-03-13T17:52:08.303Z,1.87
2019-03-13T17:54:38.645Z,1.92
2019-03-13T17:57:09.029Z,1.97
2019-03-13T17:59:39.337Z,2.07
2019-03-13T18:02:09.658Z,1.93
2019-03-13T18:04:39.987Z,1.90
2019-03-13T18:07:10.296Z,2.67
2019-03-13T18:09:40.902Z,2.93
2019-03-13T18:12:11.220Z,2.37
2019-03-13T18:14:41.561Z,1.80
2019-03-13T18:17:11.945Z,1.87
2019-03-13T18:19:42.339Z,1.70
2019-03-13T18:22:13.681Z,1.50
2019-03-13T18:24:44.210Z,1.57
2019-03-13T18:27:14.996Z,2.13
2019-03-13T18:29:46.456Z,2.07
2019-03-13T18:32:16.760Z,2.20
2019-03-13T18:34:48.199Z,2.00
2019-03-13T18:37:21.135Z,2.00
2019-03-13T18:39:57.912Z,2.17
2019-03-13T18:42:30.628Z,1.93
2019-03-13T18:45:10.815Z,1.30
2019-03-13T18:47:48.386Z,1.93
2019-03-13T18:50:22.273Z,2.10
2019-03-13T18:52:56.155Z,2.23
2019-03-13T18:55:29.848Z,2.17
2019-03-13T18:58:05.910Z,2.20
2019-03-13T19:00:39.987Z,2.00
2019-03-13T19:03:18.025Z,2.17
2019-03-13T19:05:48.525Z,2.47
2019-03-13T19:08:18.949Z,2.50
2019-03-13T19:10:51.483Z,2.67
2019-03-13T19:13:21.986Z,2.37
2019-03-13T19:16:33.019Z,2.60
2019-03-13T19:19:16.234Z,3.00
2019-03-13T19:21:27.031Z,2.80
2019-03-13T19:24:02.314Z,2.60
2019-03-13T19:26:37.275Z,2.80
2019-03-13T19:29:10.094Z,2.53
2019-03-13T19:31:47.426Z,2.07
2019-03-13T19:34:22.304Z,2.33
2019-03-13T19:37:00.996Z,2.93
2019-03-13T19:39:41.064Z,2.33
2019-03-13T19:42:17.463Z,2.63
2019-03-13T19:44:49.202Z,2.70
2019-03-13T19:47:20.298Z,2.63
2019-03-13T19:49:56.967Z,2.77
2019-03-13T19:52:27.313Z,2.63
2019-03-13T19:55:12.501Z,2.70
2019-03-13T19:57:52.501Z,2.53
2019-03-13T20:00:33.469Z,2.70
2019-03-13T20:03:07.183Z,2.50
2019-03-13T20:05:45.974Z,2.73
2019-03-13T20:08:17.285Z,2.30
2019-03-13T20:10:51.713Z,2.15
2019-03-13T20:13:33.300Z,1.50
2019-03-13T20:16:06.424Z,1.73
2019-03-13T20:18:57.073Z,2.13
2019-03-13T20:21:34.463Z,2.50
2019-03-13T20:24:08.775Z,2.63
2019-03-13T20:26:40.835Z,2.80
2019-03-13T20:29:11.188Z,2.90
2019-03-13T20:31:42.379Z,2.20
2019-03-13T20:34:12.776Z,2.50
2019-03-13T20:36:44.411Z,2.50
2019-03-13T20:39:14.817Z,2.70
2019-03-13T20:41:45.218Z,2.20
2019-03-13T20:44:15.671Z,2.60
2019-03-13T20:46:46.062Z,2.05
2019-03-13T20:49:17.266Z,2.37
2019-03-13T20:51:48.212Z,2.52
2019-03-13T20:54:18.513Z,2.33
2019-03-13T20:56:48.911Z,1.90
2019-03-13T20:59:22.214Z,1.90
2019-03-13T21:01:52.582Z,1.70
2019-03-13T21:04:22.981Z,1.80
2019-03-13T21:06:54.363Z,1.90
2019-03-13T21:09:24.650Z,1.60
2019-03-13T21:11:55.047Z,1.80
2019-03-13T21:14:25.518Z,1.87
2019-03-13T21:16:55.917Z,2.00
2019-03-13T21:19:28.105Z,1.90
2019-03-13T21:21:58.509Z,1.70
2019-03-13T21:24:28.829Z,1.80
2019-03-13T21:26:59.323Z,1.70
2019-03-13T21:29:31.131Z,1.93
2019-03-13T21:32:01.497Z,1.80
2019-03-13T21:34:31.913Z,1.80
2019-03-13T21:37:02.293Z,1.93
2019-03-13T21:39:32.705Z,2.03
2019-03-13T21:42:02.934Z,2.20
2019-03-13T21:44:34.256Z,2.17
2019-03-13T21:47:04.721Z,2.10
2019-03-13T21:49:35.065Z,2.30
2019-03-13T21:52:06.731Z,2.83
2019-03-13T21:54:37.101Z,2.60
2019-03-13T21:57:07.394Z,2.70
2019-03-13T21:59:37.828Z,2.50
2019-03-13T22:02:09.200Z,2.50
2019-03-13T22:04:39.618Z,2.40
2019-03-13T22:07:09.925Z,2.80
2019-03-13T22:09:40.312Z,2.67
2019-03-13T22:12:10.821Z,3.00
2019-03-13T22:14:41.220Z,3.30
2019-03-13T22:17:11.576Z,3.00
2019-03-13T22:19:41.906Z,6.60
2019-03-13T22:22:12.465Z,3.50
2019-03-13T22:24:42.860Z,5.47
2019-03-13T22:27:14.888Z,4.70
2019-03-13T22:29:45.182Z,6.03
2019-03-13T22:32:15.546Z,5.77
2019-03-13T22:34:45.902Z,5.53
2019-03-13T22:37:16.436Z,4.60
2019-03-13T22:39:47.133Z,4.87
2019-03-13T22:42:17.428Z,2.20
2019-03-13T22:44:48.032Z,1.70
2019-03-13T22:47:18.620Z,1.70
2019-03-13T22:49:50.090Z,1.73
2019-03-13T22:52:20.400Z,1.93
2019-03-13T22:54:50.811Z,2.30
2019-03-13T22:57:21.195Z,1.90
2019-03-13T22:59:51.550Z,2.93
2019-03-13T23:02:21.905Z,2.50
2019-03-13T23:04:53.702Z,4.63
2019-03-13T23:07:24.009Z,6.10
2019-03-13T23:09:56.424Z,6.60
2019-03-13T23:12:26.447Z,3.97
2019-03-13T23:14:57.865Z,5.97
2019-03-13T23:17:28.217Z,5.10
2019-03-13T23:19:58.727Z,4.30
2019-03-13T23:22:29.065Z,2.67
2019-03-13T23:24:59.362Z,2.77
2019-03-13T23:27:29.721Z,3.03
2019-03-13T23:30:00.022Z,5.40
2019-03-13T23:32:31.363Z,4.73
2019-03-13T23:35:05.838Z,3.87
2019-03-13T23:37:37.287Z,3.52
2019-03-13T23:40:08.774Z,4.37
2019-03-13T23:42:39.134Z,3.93
2019-03-13T23:45:09.585Z,3.12
2019-03-13T23:47:39.881Z,4.00
2019-03-13T23:50:10.226Z,4.13
2019-03-13T23:52:40.573Z,3.75
2019-03-13T23:55:11.330Z,3.50
2019-03-13T23:57:41.602Z,3.37
